KLNC

Lancaster Regional Airport

Lancaster, Texas, USA
METAR KLNC 210655Z AUTO 00000KT 10SM CLR 19/18 A3001 RMK AO2 T01860180
Observed Flight Rules
May-21 @ 06:55 UTC (17 minutes ago) Visual Flight Rules
Visibility Clouds
10 miles
  • Clear skies
Temperatures Readings
Current 19°C / 66°F
Dewpoint 18°C / 64°F
Humidity 94%
Altimeter 30.01" Hg
Pressure 1016 hPa
Elevation 153
METAR KLNC 210655Z AUTO 00000KT 10SM CLR 19/18 A3001 RMK AO2 T01860180
Observed Flight Rules
May-21 @ 06:55 UTC
(17 minutes ago)
VFR
Clouds
  • Clear skies
Temperature Dewpoint
19°C / 66°F 18°C / 64°F
Humidity Altimeter Pressure
94% 30.01" Hg 1016 hPa